Time;durP1;ratioP1;P1;durP2;ratioP2;P2;SDS_P1;SDS_P2;PMS_P1;PMS_P2;Temp;Humidity;BMP_temperature;BMP_pressure;BME280_temperature;BME280_humidity;BME280_pressure;Samples;Min_cycle;Max_cycle;Signal;HPM_P1;HPM_P2
2022/10/19 00:01:51;;;;;;;30.80;20.90;;;12.50;99.90;;;;;;4989257;28;20041;-51
2022/10/19 00:04:17;;;;;;;28.75;22.10;;;12.50;99.90;;;;;;4984683;28;20039;-51
2022/10/19 00:06:44;;;;;;;29.63;20.73;;;12.50;99.90;;;;;;4984322;28;20436;-53
2022/10/19 00:09:16;;;;;;;28.98;21.73;;;12.50;99.90;;;;;;4984373;28;20106;-50
2022/10/19 00:11:48;;;;;;;32.88;25.10;;;12.40;99.90;;;;;;4987182;28;20034;-50
2022/10/19 00:14:18;;;;;;;52.85;40.45;;;12.40;99.90;;;;;;4985893;28;20122;-48
2022/10/19 00:16:46;;;;;;;49.63;39.45;;;12.40;99.90;;;;;;4989581;28;20042;-53
2022/10/19 00:19:17;;;;;;;43.85;33.55;;;12.40;99.90;;;;;;4986657;28;20101;-53
2022/10/19 00:21:43;;;;;;;39.22;31.67;;;12.40;99.90;;;;;;4978035;28;20030;-51
2022/10/19 00:24:09;;;;;;;34.75;27.40;;;12.30;99.90;;;;;;4990598;28;20042;-50
2022/10/19 00:26:35;;;;;;;31.20;25.52;;;12.20;99.90;;;;;;4973424;28;20505;-49
2022/10/19 00:29:02;;;;;;;29.27;23.42;;;12.20;99.90;;;;;;4988489;28;20065;-50
2022/10/19 00:31:27;;;;;;;30.75;23.88;;;12.10;99.90;;;;;;4985360;28;20054;-51
2022/10/19 00:33:56;;;;;;;32.88;28.58;;;12.10;99.90;;;;;;4988951;28;20533;-50
2022/10/19 00:36:30;;;;;;;41.03;32.95;;;12.10;99.90;;;;;;4986974;28;20026;-52
2022/10/19 00:38:57;;;;;;;37.20;31.77;;;12.00;99.90;;;;;;4989097;28;20034;-51
2022/10/19 00:41:26;;;;;;;34.85;28.40;;;12.00;99.90;;;;;;4968754;28;20070;-51
2022/10/19 00:43:51;;;;;;;29.00;20.45;;;11.90;99.90;;;;;;4961038;28;20105;-50
2022/10/19 00:46:17;;;;;;;25.75;21.48;;;11.50;99.90;;;;;;4988716;28;20097;-49
2022/10/19 00:48:43;;;;;;;28.63;19.63;;;11.50;99.90;;;;;;4995853;28;20090;-51
2022/10/19 00:51:09;;;;;;;27.27;19.48;;;11.60;99.90;;;;;;4982075;28;20035;-54
2022/10/19 00:53:35;;;;;;;26.95;20.65;;;11.70;99.90;;;;;;4967384;28;20046;-52
2022/10/19 00:56:06;;;;;;;26.02;19.27;;;11.70;99.90;;;;;;4987302;28;20493;-53
2022/10/19 00:58:32;;;;;;;27.07;19.13;;;11.70;99.90;;;;;;4996340;28;20030;-55
2022/10/19 01:01:02;;;;;;;23.40;18.77;;;11.70;99.90;;;;;;4987575;28;20374;-53
2022/10/19 01:03:28;;;;;;;26.50;18.98;;;11.80;99.90;;;;;;4992985;28;20173;-53
2022/10/19 01:05:54;;;;;;;23.73;19.48;;;11.80;99.90;;;;;;4983547;28;20101;-50
2022/10/19 01:08:20;;;;;;;25.45;18.50;;;11.80;99.90;;;;;;4992291;28;20101;-52
2022/10/19 01:11:13;;;;;;;25.63;18.27;;;11.80;99.90;;;;;;4986236;28;20027;-52
2022/10/19 01:14:00;;;;;;;25.95;18.60;;;11.90;99.90;;;;;;4991004;28;20490;-54
2022/10/19 01:17:07;;;;;;;30.05;18.17;;;11.90;99.90;;;;;;4988430;28;20084;-51
2022/10/19 01:19:52;;;;;;;23.90;17.95;;;11.90;99.90;;;;;;4971243;28;20042;-54
2022/10/19 01:22:29;;;;;;;25.35;18.50;;;11.90;99.90;;;;;;4990239;28;20061;-50
2022/10/19 01:25:29;;;;;;;26.40;18.83;;;11.80;99.90;;;;;;4992483;28;20113;-51
2022/10/19 01:28:15;;;;;;;28.23;18.55;;;11.90;99.90;;;;;;4993226;28;20026;-49
2022/10/19 01:31:02;;;;;;;24.05;18.75;;;12.00;99.90;;;;;;4990102;28;20483;-54
2022/10/19 01:33:52;;;;;;;26.60;19.30;;;12.10;99.90;;;;;;4985618;28;20023;-55
2022/10/19 01:36:38;;;;;;;30.88;19.88;;;12.10;99.90;;;;;;4987999;28;20022;-54
2022/10/19 01:39:11;;;;;;;29.63;20.40;;;12.10;99.90;;;;;;4989815;28;20129;-54
2022/10/19 01:41:40;;;;;;;29.20;22.33;;;12.20;99.90;;;;;;4984257;28;20027;-52
2022/10/19 01:44:36;;;;;;;26.35;20.88;;;12.30;99.90;;;;;;4975053;28;20043;-54
2022/10/19 01:47:19;;;;;;;28.95;22.45;;;12.40;99.90;;;;;;4975536;28;20037;-53
2022/10/19 01:49:56;;;;;;;27.50;22.55;;;12.40;99.90;;;;;;4975442;28;20049;-53
2022/10/19 01:52:24;;;;;;;28.85;22.55;;;12.30;99.90;;;;;;4975214;28;20463;-53
2022/10/19 01:54:54;;;;;;;31.70;23.08;;;12.40;99.90;;;;;;4974956;28;20062;-52
2022/10/19 01:57:27;;;;;;;26.23;21.38;;;12.30;99.90;;;;;;4975352;28;20043;-50
2022/10/19 01:59:55;;;;;;;31.40;23.17;;;12.30;99.90;;;;;;4974744;28;20106;-50
2022/10/19 02:02:22;;;;;;;30.73;22.17;;;12.30;99.90;;;;;;4975894;28;20112;-53
2022/10/19 02:04:50;;;;;;;27.30;22.65;;;12.30;99.90;;;;;;4974831;28;20038;-54
2022/10/19 02:07:16;;;;;;;28.77;22.15;;;12.30;99.90;;;;;;4974605;28;20093;-54
2022/10/19 02:09:42;;;;;;;37.85;22.40;;;12.30;99.90;;;;;;4974554;28;20551;-52
2022/10/19 02:12:09;;;;;;;28.50;22.63;;;12.20;99.90;;;;;;4975238;28;20146;-52
2022/10/19 02:14:43;;;;;;;31.55;22.95;;;12.30;99.90;;;;;;4930202;29;20039;-53
2022/10/19 02:17:13;;;;;;;27.88;23.42;;;12.20;99.90;;;;;;4930205;29;20127;-53
2022/10/19 02:19:39;;;;;;;31.27;24.65;;;12.20;99.90;;;;;;4907143;29;20048;-49
2022/10/19 02:22:06;;;;;;;30.23;24.67;;;12.20;99.90;;;;;;4903575;29;20540;-53
2022/10/19 02:24:32;;;;;;;30.15;24.63;;;12.30;99.90;;;;;;4908726;29;20104;-52
2022/10/19 02:26:59;;;;;;;31.38;24.48;;;12.40;99.90;;;;;;4910191;29;20048;-53
2022/10/19 02:29:26;;;;;;;33.28;25.67;;;12.40;99.90;;;;;;4908991;29;20044;-52
2022/10/19 02:31:52;;;;;;;28.05;24.42;;;12.40;99.90;;;;;;4907357;29;20032;-50
2022/10/19 02:34:18;;;;;;;31.83;25.15;;;12.30;99.90;;;;;;4909542;29;20040;-53
2022/10/19 02:36:43;;;;;;;32.90;24.10;;;12.20;99.90;;;;;;4905220;29;20070;-55
2022/10/19 02:39:09;;;;;;;38.28;25.08;;;12.10;99.90;;;;;;4905116;29;20051;-54
2022/10/19 02:41:59;;;;;;;34.80;24.70;;;12.00;99.90;;;;;;4885990;29;20044;-56
2022/10/19 02:44:30;;;;;;;33.55;25.65;;;12.00;99.90;;;;;;4906045;29;20153;-52
2022/10/19 02:47:06;;;;;;;30.13;24.13;;;12.10;99.90;;;;;;4946768;29;20400;-52
2022/10/19 02:49:35;;;;;;;31.92;25.38;;;11.90;99.90;;;;;;4945171;29;20032;-54
2022/10/19 02:52:08;;;;;;;32.50;24.83;;;11.80;99.90;;;;;;4922701;29;20075;-53
2022/10/19 02:54:34;;;;;;;33.67;23.85;;;11.80;99.90;;;;;;4949296;29;20035;-49
2022/10/19 02:57:02;;;;;;;27.83;23.13;;;11.80;99.90;;;;;;4948058;29;20483;-52
2022/10/19 02:59:27;;;;;;;34.25;26.25;;;11.80;99.90;;;;;;4947249;29;20560;-51
2022/10/19 03:01:53;;;;;;;30.98;22.60;;;11.70;99.90;;;;;;4950745;29;20110;-52
2022/10/19 03:04:19;;;;;;;30.98;24.98;;;11.70;99.90;;;;;;4947091;29;20043;-55
2022/10/19 03:06:44;;;;;;;33.35;24.30;;;11.80;99.90;;;;;;4948702;29;20036;-55
2022/10/19 03:09:10;;;;;;;29.50;23.77;;;11.90;99.90;;;;;;4944726;29;20032;-51
2022/10/19 03:11:36;;;;;;;37.47;24.38;;;11.70;99.90;;;;;;4896030;29;20055;-53
2022/10/19 03:14:02;;;;;;;29.85;25.33;;;11.70;99.90;;;;;;4947003;29;20086;-50
2022/10/19 03:16:27;;;;;;;33.92;25.83;;;11.80;99.90;;;;;;4926874;29;20042;-50
2022/10/19 03:18:53;;;;;;;32.85;26.15;;;11.80;99.90;;;;;;4950804;29;20028;-51
2022/10/19 03:21:19;;;;;;;33.22;25.48;;;11.90;99.90;;;;;;4939578;29;20031;-53
2022/10/19 03:23:45;;;;;;;31.70;25.65;;;12.00;99.90;;;;;;4922815;29;20202;-52
2022/10/19 03:26:15;;;;;;;35.17;27.58;;;12.10;99.90;;;;;;4936537;28;20074;-49
2022/10/19 03:28:41;;;;;;;33.15;26.33;;;12.10;99.90;;;;;;4949976;29;20031;-49
2022/10/19 03:31:07;;;;;;;35.28;26.05;;;12.20;99.90;;;;;;4948504;29;20518;-52
2022/10/19 03:33:32;;;;;;;33.90;27.27;;;12.30;99.90;;;;;;4906100;29;20035;-51
2022/10/19 03:36:21;;;;;;;31.83;25.63;;;12.30;99.90;;;;;;4945524;29;20051;-51
2022/10/19 03:38:52;;;;;;;35.25;25.48;;;12.40;99.90;;;;;;4953315;28;20039;-50
2022/10/19 03:41:20;;;;;;;33.35;25.73;;;12.40;99.90;;;;;;4954658;29;20027;-54
2022/10/19 03:43:46;;;;;;;32.67;25.80;;;12.40;99.90;;;;;;4953209;29;20035;-53
2022/10/19 03:46:12;;;;;;;33.53;24.67;;;12.40;99.90;;;;;;4953648;29;20030;-54
2022/10/19 03:48:37;;;;;;;35.20;26.23;;;12.40;99.90;;;;;;4954179;29;20047;-55
2022/10/19 03:51:14;;;;;;;31.95;24.55;;;12.40;99.90;;;;;;4953563;29;20023;-52
2022/10/19 03:53:40;;;;;;;32.38;26.33;;;12.40;99.90;;;;;;4953449;29;20483;-52
2022/10/19 03:56:15;;;;;;;34.58;24.73;;;12.40;99.90;;;;;;4953275;29;20103;-53
2022/10/19 03:58:42;;;;;;;36.42;25.85;;;12.40;99.90;;;;;;4953859;29;20479;-51
2022/10/19 04:01:14;;;;;;;31.95;24.33;;;12.20;99.90;;;;;;4953835;29;20034;-53
2022/10/19 04:03:39;;;;;;;31.58;23.85;;;12.10;99.90;;;;;;4953168;29;20039;-52
2022/10/19 04:06:12;;;;;;;29.85;24.95;;;12.00;99.90;;;;;;4953545;29;20390;-54
2022/10/19 04:08:38;;;;;;;29.20;24.58;;;12.00;99.90;;;;;;4954006;29;20027;-53
2022/10/19 04:11:07;;;;;;;29.77;24.67;;;12.00;99.90;;;;;;4934668;29;20039;-53
2022/10/19 04:13:33;;;;;;;32.88;25.13;;;12.00;99.90;;;;;;4954243;29;20051;-51
2022/10/19 04:15:59;;;;;;;36.92;25.13;;;11.90;99.90;;;;;;4938155;29;20035;-53
2022/10/19 04:18:25;;;;;;;33.63;25.55;;;11.80;99.90;;;;;;4955368;29;20543;-51
2022/10/19 04:21:03;;;;;;;33.92;25.65;;;11.70;99.90;;;;;;4954344;29;20027;-54
2022/10/19 04:23:31;;;;;;;35.83;25.88;;;11.80;99.90;;;;;;4955986;29;20039;-51
2022/10/19 04:26:01;;;;;;;30.70;24.33;;;11.80;99.90;;;;;;4952812;29;20538;-51
2022/10/19 04:28:27;;;;;;;33.58;25.38;;;11.90;99.90;;;;;;4957571;29;20027;-53
2022/10/19 04:30:53;;;;;;;34.22;25.20;;;12.00;99.90;;;;;;4957002;29;20074;-52
2022/10/19 04:33:19;;;;;;;31.10;24.50;;;12.10;99.90;;;;;;4957383;29;20058;-51
2022/10/19 04:35:45;;;;;;;35.15;25.98;;;12.20;99.90;;;;;;4939078;29;20126;-54
2022/10/19 04:38:10;;;;;;;32.33;25.42;;;12.20;99.90;;;;;;4919556;29;20062;-50
2022/10/19 04:40:36;;;;;;;34.65;26.10;;;12.20;99.90;;;;;;4956778;29;20070;-52
2022/10/19 04:43:03;;;;;;;31.83;24.75;;;12.20;99.90;;;;;;4935758;29;20079;-53
2022/10/19 04:45:30;;;;;;;30.92;24.67;;;12.30;99.90;;;;;;4951097;29;20095;-53
2022/10/19 04:47:55;;;;;;;32.13;25.40;;;12.30;99.90;;;;;;4951227;29;20063;-54
2022/10/19 04:50:23;;;;;;;38.75;27.00;;;12.40;99.90;;;;;;4905025;29;20066;-54
2022/10/19 04:52:48;;;;;;;31.05;25.38;;;12.40;99.90;;;;;;4950673;29;20075;-55
2022/10/19 04:55:14;;;;;;;31.25;25.80;;;12.50;99.90;;;;;;4948651;29;20368;-52
2022/10/19 04:57:40;;;;;;;31.10;25.88;;;12.60;99.90;;;;;;4909503;29;20043;-53
2022/10/19 05:00:06;;;;;;;34.33;25.23;;;12.60;99.90;;;;;;4905319;29;20052;-53
2022/10/19 05:02:32;;;;;;;31.98;24.48;;;12.60;99.90;;;;;;4907064;29;20091;-53
2022/10/19 05:04:57;;;;;;;34.47;28.17;;;12.60;99.90;;;;;;4952128;29;20055;-53
2022/10/19 05:07:23;;;;;;;34.17;25.77;;;12.70;99.90;;;;;;4907796;29;20043;-49
2022/10/19 05:09:49;;;;;;;38.05;26.30;;;12.70;99.90;;;;;;4943357;29;20114;-52
2022/10/19 05:12:15;;;;;;;35.47;26.58;;;12.70;99.90;;;;;;4907305;29;20031;-55
2022/10/19 05:14:40;;;;;;;31.70;25.55;;;12.60;99.90;;;;;;4906228;29;20094;-51
2022/10/19 05:17:06;;;;;;;30.23;25.60;;;12.60;99.90;;;;;;4956414;29;20066;-50
2022/10/19 05:19:32;;;;;;;28.98;24.92;;;12.60;99.90;;;;;;4953270;29;20031;-50
2022/10/19 05:21:57;;;;;;;36.22;25.00;;;12.60;99.90;;;;;;4920533;29;20083;-52
2022/10/19 05:24:23;;;;;;;32.90;25.42;;;12.70;99.90;;;;;;4894337;29;20070;-51
2022/10/19 05:26:49;;;;;;;29.83;25.30;;;12.80;99.90;;;;;;4904197;28;20039;-53
2022/10/19 05:29:15;;;;;;;28.80;24.67;;;;;;;;;;4956114;28;20051;-54
2022/10/19 05:31:41;;;;;;;31.63;25.30;;;13.10;99.90;;;;;;4951637;29;20364;-54
2022/10/19 05:34:07;;;;;;;31.35;26.20;;;13.10;99.90;;;;;;4934328;29;20031;-53
2022/10/19 05:36:35;;;;;;;40.95;30.13;;;13.20;99.90;;;;;;4926071;28;20054;-53
2022/10/19 05:39:06;;;;;;;35.33;27.25;;;14.10;99.90;;;;;;4975168;28;20039;-54
2022/10/19 05:41:32;;;;;;;30.38;22.30;;;;;;;;;;4974293;28;20474;-53
2022/10/19 05:44:00;;;;;;;32.03;24.15;;;16.80;99.90;;;;;;4974293;28;20120;-53
2022/10/19 05:46:26;;;;;;;26.05;21.45;;;;;;;;;;4975119;28;20027;-52
2022/10/19 05:48:54;;;;;;;28.63;20.05;;;19.10;99.90;;;;;;4970179;28;20058;-52
2022/10/19 05:51:21;;;;;;;23.40;19.73;;;19.90;99.90;;;;;;4940360;28;20043;-55
2022/10/19 05:53:47;;;;;;;23.17;19.42;;;;;;;;;;4974540;28;20030;-54
2022/10/19 05:56:15;;;;;;;23.02;18.67;;;;;;;;;;4975035;28;20031;-52
2022/10/19 05:58:41;;;;;;;29.23;21.48;;;;;;;;;;4973870;28;20039;-47
2022/10/19 06:01:08;;;;;;;23.48;19.15;;;23.10;99.90;;;;;;4925093;28;20049;-49
2022/10/19 06:03:34;;;;;;;23.88;19.13;;;24.10;99.90;;;;;;4975050;28;20125;-48
2022/10/19 06:06:02;;;;;;;27.33;19.42;;;;;;;;;;4948343;28;20510;-48
2022/10/19 06:08:28;;;;;;;24.00;18.90;;;;;;;;;;4965098;28;20078;-51
2022/10/19 06:11:07;;;;;;;23.65;18.17;;;25.80;99.90;;;;;;4938352;28;20051;-50
2022/10/19 06:13:33;;;;;;;24.17;17.77;;;26.30;99.40;;;;;;4964490;28;20352;-51
2022/10/19 06:15:58;;;;;;;21.20;17.38;;;26.50;98.90;;;;;;4972997;28;20033;-51
2022/10/19 06:18:24;;;;;;;23.10;18.27;;;;;;;;;;4974430;28;20034;-52
2022/10/19 06:20:51;;;;;;;21.20;17.77;;;27.30;95.30;;;;;;4941729;28;20148;-52
2022/10/19 06:23:17;;;;;;;20.67;18.25;;;26.30;94.80;;;;;;4974296;28;20360;-53
2022/10/19 06:25:43;;;;;;;23.52;18.50;;;25.90;96.10;;;;;;4941028;28;20113;-47
2022/10/19 06:28:09;;;;;;;28.10;17.67;;;27.20;95.70;;;;;;4940277;28;20042;-52
2022/10/19 06:30:44;;;;;;;21.40;17.77;;;27.00;95.30;;;;;;4973197;28;20026;-51
2022/10/19 06:33:09;;;;;;;21.00;17.88;;;25.80;94.50;;;;;;4970751;28;20023;-51
2022/10/19 06:35:37;;;;;;;22.17;17.48;;;;;;;;;;4974996;28;20031;-51
2022/10/19 06:38:03;;;;;;;20.63;17.75;;;28.30;94.20;;;;;;4973266;28;20138;-51
2022/10/19 06:40:29;;;;;;;22.63;17.90;;;29.00;93.20;;;;;;4968333;28;20034;-51
2022/10/19 06:42:55;;;;;;;25.73;17.85;;;;;;;;;;4920518;28;20039;-49
2022/10/19 06:45:21;;;;;;;23.35;17.73;;;29.60;93.30;;;;;;4973844;28;20359;-52
2022/10/19 06:47:47;;;;;;;23.38;17.17;;;;;;;;;;4973733;28;20034;-52
2022/10/19 06:50:13;;;;;;;21.73;17.90;;;;;;;;;;4940424;28;20045;-48
2022/10/19 06:52:39;;;;;;;24.00;17.42;;;30.70;99.80;;;;;;4972406;28;20117;-49
2022/10/19 06:55:06;;;;;;;21.75;18.70;;;;;;;;;;4973977;28;20114;-51
2022/10/19 06:57:31;;;;;;;20.45;17.98;;;31.40;96.00;;;;;;4974013;28;20027;-49
2022/10/19 06:59:57;;;;;;;24.45;17.35;;;31.60;97.70;;;;;;4973175;28;20041;-51
2022/10/19 07:02:23;;;;;;;25.65;18.38;;;29.60;90.00;;;;;;4973755;28;20058;-52
2022/10/19 07:04:48;;;;;;;20.88;16.70;;;29.20;90.70;;;;;;4972452;28;20039;-52
2022/10/19 07:07:14;;;;;;;24.10;18.17;;;28.20;90.50;;;;;;4969887;28;20075;-50
2022/10/19 07:09:40;;;;;;;22.48;16.98;;;27.90;91.70;;;;;;4972420;28;20035;-49
2022/10/19 07:12:07;;;;;;;20.23;17.23;;;27.90;91.40;;;;;;4973655;28;20035;-50
2022/10/19 07:14:37;;;;;;;21.50;16.27;;;28.00;91.90;;;;;;4973565;28;20114;-50
2022/10/19 07:17:08;;;;;;;22.23;16.23;;;27.40;90.90;;;;;;4969680;28;20053;-55
2022/10/19 07:19:34;;;;;;;24.70;17.02;;;28.00;90.70;;;;;;4971183;28;20049;-51
2022/10/19 07:22:00;;;;;;;21.20;16.45;;;28.80;91.10;;;;;;4972163;28;20026;-50
2022/10/19 07:24:26;;;;;;;22.27;17.10;;;28.70;90.70;;;;;;4961460;28;20058;-50
2022/10/19 07:26:52;;;;;;;20.67;16.42;;;;;;;;;;4972975;28;20038;-51
2022/10/19 07:29:18;;;;;;;21.80;16.23;;;28.40;90.50;;;;;;4973987;28;20030;-51
2022/10/19 07:31:44;;;;;;;22.67;16.40;;;;;;;;;;4916932;28;20434;-52
2022/10/19 07:34:12;;;;;;;20.73;15.50;;;30.10;96.70;;;;;;4971860;28;20062;-50
2022/10/19 07:36:39;;;;;;;22.13;16.67;;;29.80;88.50;;;;;;4966125;28;20058;-51
2022/10/19 07:39:06;;;;;;;21.27;16.40;;;29.70;89.70;;;;;;4951712;29;20042;-53
2022/10/19 07:41:33;;;;;;;18.08;16.10;;;28.40;90.20;;;;;;4935920;29;20055;-51
2022/10/19 07:44:00;;;;;;;19.67;16.92;;;27.60;90.20;;;;;;4954260;29;20531;-53
2022/10/19 07:46:34;;;;;;;18.35;16.38;;;27.80;90.50;;;;;;4887353;29;20502;-51
2022/10/19 07:49:00;;;;;;;19.85;16.05;;;27.50;90.60;;;;;;4951117;29;20484;-52
2022/10/19 07:51:26;;;;;;;19.27;16.58;;;27.20;90.60;;;;;;4950234;28;20027;-51
2022/10/19 07:53:52;;;;;;;18.77;15.73;;;27.30;90.90;;;;;;4952852;29;20030;-52
2022/10/19 07:56:24;;;;;;;24.45;16.83;;;27.60;90.80;;;;;;4952306;29;20031;-51
2022/10/19 07:58:51;;;;;;;24.40;15.70;;;26.70;91.50;;;;;;4947794;29;20035;-51
2022/10/19 08:01:23;;;;;;;20.55;16.92;;;25.10;91.90;;;;;;4933232;29;20031;-52
2022/10/19 08:03:51;;;;;;;20.25;16.17;;;26.40;92.30;;;;;;4945575;29;20042;-50
2022/10/19 08:06:20;;;;;;;20.48;16.73;;;26.70;92.00;;;;;;4935057;29;20043;-53
2022/10/19 08:08:47;;;;;;;18.80;16.63;;;25.20;91.80;;;;;;4951067;29;20027;-49
2022/10/19 08:11:17;;;;;;;18.42;16.40;;;26.40;92.10;;;;;;4953122;29;20035;-52
2022/10/19 08:13:43;;;;;;;18.30;16.33;;;26.30;92.10;;;;;;4947290;28;20472;-53
2022/10/19 08:16:26;;;;;;;20.88;18.73;;;25.60;92.10;;;;;;4934357;28;20095;-49
2022/10/19 08:18:55;;;;;;;15.93;14.13;;;;;;;;;;4918685;29;20045;-49
2022/10/19 08:21:20;;;;;;;17.98;15.55;;;25.20;99.90;;;;;;4945578;29;20050;-52
2022/10/19 08:23:46;;;;;;;17.63;15.68;;;25.90;92.30;;;;;;4914695;29;20420;-53
2022/10/19 08:26:12;;;;;;;20.50;14.75;;;25.70;91.80;;;;;;4949445;28;20031;-52
2022/10/19 08:28:38;;;;;;;21.92;16.08;;;25.90;92.30;;;;;;4948626;29;20666;-48
2022/10/19 08:31:19;;;;;;;17.25;15.43;;;26.10;92.30;;;;;;4947658;29;20535;-52
2022/10/19 08:33:45;;;;;;;24.02;15.40;;;26.00;91.90;;;;;;4947049;29;20039;-51
2022/10/19 08:36:12;;;;;;;24.52;13.85;;;25.90;92.20;;;;;;4952341;29;20023;-51
2022/10/19 08:38:38;;;;;;;19.30;15.18;;;24.90;92.30;;;;;;4901155;29;20138;-50
2022/10/19 08:41:31;;;;;;;20.88;15.25;;;25.50;92.60;;;;;;4949255;29;20259;-54
2022/10/19 08:44:17;;;;;;;18.23;15.30;;;25.60;92.60;;;;;;4946668;29;20391;-51
2022/10/19 08:47:24;;;;;;;24.70;16.35;;;25.80;92.10;;;;;;4933562;29;20035;-52
2022/10/19 08:49:51;;;;;;;22.50;14.73;;;25.00;92.60;;;;;;4915963;29;20043;-49
2022/10/19 08:52:24;;;;;;;24.00;14.73;;;24.90;92.70;;;;;;4951723;29;20027;-51
2022/10/19 08:54:59;;;;;;;19.75;15.57;;;25.10;92.80;;;;;;4879608;29;20454;-51
2022/10/19 08:57:47;;;;;;;19.90;15.43;;;25.60;92.80;;;;;;4909921;29;20448;-49
2022/10/19 09:00:16;;;;;;;19.63;15.48;;;26.20;92.40;;;;;;4907721;29;20047;-48
2022/10/19 09:03:08;;;;;;;19.58;14.48;;;25.10;92.50;;;;;;4911122;29;20389;-51
2022/10/19 09:05:50;;;;;;;18.33;14.75;;;25.30;92.60;;;;;;4898867;29;20127;-51
2022/10/19 09:08:18;;;;;;;20.98;16.83;;;25.60;93.10;;;;;;4897255;29;20064;-53
2022/10/19 09:10:49;;;;;;;17.17;14.48;;;26.10;93.00;;;;;;4896547;29;20036;-50
2022/10/19 09:13:39;;;;;;;17.63;15.43;;;25.60;92.40;;;;;;4896384;29;20131;-52
2022/10/19 09:16:05;;;;;;;22.25;16.67;;;25.00;92.80;;;;;;4895307;29;20116;-52
2022/10/19 09:18:33;;;;;;;18.95;14.57;;;24.70;93.70;;;;;;4896859;29;20482;-52
2022/10/19 09:21:02;;;;;;;19.55;15.45;;;;;;;;;;4897017;29;20428;-51
2022/10/19 09:23:35;;;;;;;19.15;14.88;;;24.50;93.80;;;;;;4896372;29;20138;-50
2022/10/19 09:26:04;;;;;;;21.83;16.80;;;24.20;94.40;;;;;;4922643;29;20043;-52
2022/10/19 09:28:49;;;;;;;19.17;15.90;;;24.80;94.20;;;;;;4935829;29;20535;-49
2022/10/19 09:31:30;;;;;;;19.60;17.27;;;24.50;94.50;;;;;;4935555;29;20024;-52
2022/10/19 09:34:00;;;;;;;18.80;16.17;;;24.40;94.50;;;;;;4934250;29;20491;-49
2022/10/19 09:36:38;;;;;;;18.10;13.70;;;25.30;94.10;;;;;;4934714;29;20035;-51
2022/10/19 09:39:04;;;;;;;20.67;16.67;;;24.10;94.80;;;;;;4934995;29;20415;-53
2022/10/19 09:41:29;;;;;;;20.38;17.08;;;24.50;94.40;;;;;;4915075;29;20044;-51
2022/10/19 09:43:56;;;;;;;17.45;14.57;;;24.70;94.30;;;;;;4917443;29;20052;-49
2022/10/19 09:46:51;;;;;;;17.88;15.95;;;24.60;94.30;;;;;;4903748;29;20048;-49
2022/10/19 09:49:18;;;;;;;17.33;14.65;;;24.30;94.50;;;;;;4906597;29;20043;-55
2022/10/19 09:51:50;;;;;;;20.45;16.17;;;24.90;94.30;;;;;;4882864;29;20111;-50
2022/10/19 09:54:22;;;;;;;;;;;25.00;94.80;;;;;;4912073;29;20032;-55
2022/10/19 09:56:53;;;;;;;20.63;15.60;;;25.20;94.40;;;;;;4913744;29;19926;-49
2022/10/19 09:59:27;;;;;;;18.27;16.05;;;24.90;94.20;;;;;;4900879;29;20046;-56
2022/10/19 10:02:20;;;;;;;16.90;14.07;;;25.00;94.90;;;;;;4903630;29;20497;-56
2022/10/19 10:05:08;;;;;;;18.73;14.80;;;25.10;95.20;;;;;;4913122;29;20469;-57
2022/10/19 10:07:37;;;;;;;17.42;15.63;;;24.60;94.70;;;;;;4932576;29;20576;-54
2022/10/19 10:10:31;;;;;;;19.40;16.88;;;25.00;95.10;;;;;;4932431;29;20028;-56
2022/10/19 10:12:58;;;;;;;17.70;14.93;;;25.10;95.30;;;;;;4929265;29;20071;-56
2022/10/19 10:15:26;;;;;;;20.85;18.75;;;25.00;94.70;;;;;;4931876;29;20019;-55
2022/10/19 10:17:54;;;;;;;21.13;18.00;;;25.00;95.00;;;;;;4934499;29;20075;-56
2022/10/19 10:20:31;;;;;;;20.20;16.95;;;25.40;95.70;;;;;;4946317;29;20584;-56
2022/10/19 10:23:03;;;;;;;19.60;17.55;;;25.40;95.10;;;;;;4946597;29;20110;-55
2022/10/19 10:25:30;;;;;;;;;;;25.00;95.50;;;;;;4956011;29;20050;-56
2022/10/19 10:27:59;;;;;;;17.85;14.23;;;25.10;95.60;;;;;;4954332;29;20267;-56
2022/10/19 10:30:27;;;;;;;20.15;16.88;;;24.30;95.70;;;;;;4922077;29;20066;-58
2022/10/19 10:32:54;;;;;;;18.88;16.30;;;24.70;96.00;;;;;;4953125;29;20375;-54
2022/10/19 10:35:27;;;;;;;18.70;16.70;;;25.10;95.60;;;;;;4952195;29;20110;-59
2022/10/19 10:38:05;;;;;;;16.08;12.18;;;25.00;95.80;;;;;;4954352;28;20051;-57
2022/10/19 10:40:31;;;;;;;17.15;15.25;;;24.20;95.90;;;;;;4938149;29;20181;-56
2022/10/19 10:43:07;;;;;;;19.25;16.52;;;23.80;96.90;;;;;;4954024;29;20111;-55
2022/10/19 10:45:46;;;;;;;18.58;16.48;;;23.60;97.10;;;;;;4917782;29;20110;-54
2022/10/19 10:48:34;;;;;;;22.40;16.77;;;23.30;97.40;;;;;;4954322;29;20026;-57
2022/10/19 10:51:01;;;;;;;19.15;16.88;;;22.90;98.10;;;;;;4955029;29;20028;-54
2022/10/19 10:53:31;;;;;;;20.45;18.23;;;22.80;98.60;;;;;;4955527;29;20016;-54
2022/10/19 10:55:57;;;;;;;19.52;17.30;;;22.70;98.90;;;;;;4954725;29;20110;-56
2022/10/19 10:58:46;;;;;;;21.05;18.80;;;22.60;99.90;;;;;;4954695;29;20118;-55
2022/10/19 11:01:25;;;;;;;24.50;17.08;;;22.20;99.90;;;;;;4955005;29;20102;-57
2022/10/19 11:03:57;;;;;;;18.98;16.98;;;;;;;;;;4954213;29;20491;-55
2022/10/19 11:06:24;;;;;;;19.80;16.48;;;22.00;99.90;;;;;;4954776;29;20091;-57
2022/10/19 11:09:04;;;;;;;21.48;18.02;;;21.70;99.90;;;;;;4925824;29;20031;-55
2022/10/19 11:11:38;;;;;;;19.50;17.50;;;21.70;99.90;;;;;;4955264;28;20054;-56
2022/10/19 11:14:28;;;;;;;20.88;17.02;;;21.10;99.90;;;;;;4951887;29;20039;-54
2022/10/19 11:16:59;;;;;;;23.85;18.65;;;21.20;99.90;;;;;;4954626;29;20037;-55
2022/10/19 11:19:42;;;;;;;24.52;17.88;;;21.10;99.90;;;;;;4954329;28;20027;-54
2022/10/19 11:22:29;;;;;;;16.35;11.95;;;20.80;99.90;;;;;;4953468;29;20074;-57
2022/10/19 11:25:19;;;;;;;27.77;18.13;;;20.30;99.90;;;;;;4952920;28;20135;-57
2022/10/19 11:28:03;;;;;;;20.30;17.75;;;20.30;99.90;;;;;;4954294;29;20059;-56
2022/10/19 11:30:34;;;;;;;23.30;18.95;;;20.30;99.90;;;;;;4954773;29;20031;-55
2022/10/19 11:33:27;;;;;;;19.38;16.73;;;20.30;99.90;;;;;;4954637;29;20054;-55
2022/10/19 11:36:02;;;;;;;22.13;17.33;;;20.10;99.90;;;;;;4950430;29;20038;-56
2022/10/19 11:38:48;;;;;;;31.10;18.33;;;20.10;99.90;;;;;;4949701;29;20075;-56
2022/10/19 11:41:40;;;;;;;22.88;17.70;;;20.10;99.90;;;;;;4947350;29;20027;-55
2022/10/19 11:44:50;;;;;;;16.90;15.13;;;19.90;99.90;;;;;;4947828;29;20500;-57
2022/10/19 11:47:18;;;;;;;19.98;16.83;;;19.90;99.90;;;;;;4855106;29;20046;-55
2022/10/19 11:49:58;;;;;;;21.48;17.92;;;19.90;99.90;;;;;;4841806;29;20037;-57
2022/10/19 11:53:06;;;;;;;19.73;15.27;;;19.80;99.90;;;;;;4856250;29;20049;-56
2022/10/19 11:55:58;;;;;;;26.42;18.17;;;19.80;99.90;;;;;;4848770;29;20057;-57
2022/10/19 11:58:57;;;;;;;20.55;16.27;;;19.90;99.90;;;;;;4853039;29;20050;-54
2022/10/19 12:01:48;;;;;;;21.20;18.67;;;19.80;99.90;;;;;;4854402;29;20435;-55
2022/10/19 12:05:08;;;;;;;24.13;20.08;;;19.80;99.90;;;;;;4849824;29;20050;-57
2022/10/19 12:07:45;;;;;;;21.67;19.30;;;19.90;99.90;;;;;;4844058;29;20046;-58
2022/10/19 12:10:16;;;;;;;25.80;20.48;;;20.30;99.90;;;;;;4840096;29;20042;-56
2022/10/19 12:12:46;;;;;;;21.10;17.47;;;21.00;99.90;;;;;;4839884;29;20502;-56
2022/10/19 12:15:27;;;;;;;21.40;18.10;;;21.40;99.90;;;;;;4838646;29;20068;-56
2022/10/19 12:17:56;;;;;;;26.63;18.15;;;21.50;99.90;;;;;;4841002;29;20046;-56
2022/10/19 12:20:29;;;;;;;21.55;15.93;;;21.50;99.90;;;;;;4839215;29;20075;-55
2022/10/19 12:22:58;;;;;;;22.35;18.70;;;21.70;99.90;;;;;;4850572;29;20132;-54
2022/10/19 12:25:25;;;;;;;24.13;18.35;;;22.10;99.90;;;;;;4929272;29;20130;-57
2022/10/19 12:27:51;;;;;;;20.60;17.90;;;22.00;99.90;;;;;;4927985;29;20047;-57
2022/10/19 12:30:22;;;;;;;25.10;18.35;;;21.80;99.90;;;;;;4929534;29;20031;-56
2022/10/19 12:32:54;;;;;;;24.42;19.55;;;21.40;99.90;;;;;;4928894;29;20459;-56
2022/10/19 12:35:23;;;;;;;21.60;17.35;;;21.30;99.90;;;;;;4928102;29;20420;-56
2022/10/19 12:38:05;;;;;;;18.67;16.67;;;21.10;99.90;;;;;;4944349;29;20055;-55
2022/10/19 12:40:39;;;;;;;17.80;13.60;;;21.00;99.90;;;;;;4953904;28;20035;-56
2022/10/19 12:43:37;;;;;;;31.38;18.25;;;21.00;99.90;;;;;;4967520;28;20042;-58
2022/10/19 12:46:33;;;;;;;21.25;18.95;;;21.00;99.90;;;;;;4968783;28;20062;-67
2022/10/19 12:49:29;;;;;;;21.13;17.25;;;20.90;99.90;;;;;;4973279;28;20479;-61
2022/10/19 12:51:57;;;;;;;24.98;17.15;;;20.60;99.90;;;;;;4971218;28;20066;-55
2022/10/19 12:54:25;;;;;;;21.90;16.35;;;20.80;99.90;;;;;;4973856;28;20049;-59
2022/10/19 12:56:54;;;;;;;23.48;17.75;;;20.70;99.90;;;;;;4970145;28;20039;-55